sensor_id;sensor_type;location;lat;lon;timestamp;pressure;altitude;pressure_sealevel;temperature;humidity
48035;BME280;33812;46.480;6.834;2023-02-16T05:30:11;94712.22;;;21.90;29.96
48035;BME280;33812;46.480;6.834;2023-02-16T05:34:12;94704.69;;;21.90;30.07
48035;BME280;33812;46.480;6.834;2023-02-16T05:38:14;94707.47;;;21.90;30.88
48035;BME280;33812;46.480;6.834;2023-02-16T05:42:16;94699.97;;;21.91;31.30
48035;BME280;33812;46.480;6.834;2023-02-16T05:46:20;94708.97;;;21.95;31.60
48035;BME280;33812;46.480;6.834;2023-02-16T05:50:23;94709.38;;;21.93;31.71
48035;BME280;33812;46.480;6.834;2023-02-16T05:54:24;94706.63;;;21.93;31.58
48035;BME280;33812;46.480;6.834;2023-02-16T05:58:27;94714.91;;;21.93;31.51
48035;BME280;33812;46.480;6.834;2023-02-16T06:02:30;94712.56;;;21.92;31.23
48035;BME280;33812;46.480;6.834;2023-02-16T06:06:32;94710.94;;;21.94;31.23
48035;BME280;33812;46.480;6.834;2023-02-16T06:10:33;94718.53;;;21.90;30.90
48035;BME280;33812;46.480;6.834;2023-02-16T06:14:35;94721.72;;;21.89;30.60
48035;BME280;33812;46.480;6.834;2023-02-16T06:18:38;94733.22;;;21.87;30.49
48035;BME280;33812;46.480;6.834;2023-02-16T06:22:40;94736.31;;;21.89;30.80
48035;BME280;33812;46.480;6.834;2023-02-16T06:26:41;94737.13;;;21.90;31.26
48035;BME280;33812;46.480;6.834;2023-02-16T06:30:43;94748.56;;;21.92;31.31
48035;BME280;33812;46.480;6.834;2023-02-16T06:34:46;94748.19;;;21.90;31.45
48035;BME280;33812;46.480;6.834;2023-02-16T06:38:49;94748.97;;;21.90;31.66
48035;BME280;33812;46.480;6.834;2023-02-16T06:42:51;94741.03;;;21.92;31.22
48035;BME280;33812;46.480;6.834;2023-02-16T06:46:52;94748.94;;;21.94;31.52
48035;BME280;33812;46.480;6.834;2023-02-16T06:50:56;94747.34;;;21.93;31.59
48035;BME280;33812;46.480;6.834;2023-02-16T06:54:58;94747.34;;;21.93;31.42
48035;BME280;33812;46.480;6.834;2023-02-16T06:59:00;94740.63;;;21.94;31.66
48035;BME280;33812;46.480;6.834;2023-02-16T07:03:02;94744.25;;;21.91;31.90
48035;BME280;33812;46.480;6.834;2023-02-16T07:07:06;94746.22;;;21.90;32.24
48035;BME280;33812;46.480;6.834;2023-02-16T07:11:07;94748.97;;;21.90;32.00
48035;BME280;33812;46.480;6.834;2023-02-16T07:15:14;94743.03;;;21.92;31.66
48035;BME280;33812;46.480;6.834;2023-02-16T07:19:16;94741.88;;;21.89;31.95
48035;BME280;33812;46.480;6.834;2023-02-16T07:23:19;94748.97;;;21.90;32.18
48035;BME280;33812;46.480;6.834;2023-02-16T07:27:21;94757.28;;;21.90;32.08
48035;BME280;33812;46.480;6.834;2023-02-16T07:31:23;94761.66;;;21.88;31.99
48035;BME280;33812;46.480;6.834;2023-02-16T07:35:26;94768.78;;;21.89;31.96
48035;BME280;33812;46.480;6.834;2023-02-16T07:39:29;94762.44;;;21.88;32.14
48035;BME280;33812;46.480;6.834;2023-02-16T07:43:31;94776.28;;;21.88;32.41
48035;BME280;33812;46.480;6.834;2023-02-16T07:47:34;94776.69;;;21.86;32.46
48035;BME280;33812;46.480;6.834;2023-02-16T07:51:35;94773.56;;;21.84;32.48
48035;BME280;33812;46.480;6.834;2023-02-16T07:55:39;94771.97;;;21.87;32.58
48035;BME280;33812;46.480;6.834;2023-02-16T07:59:42;94762.44;;;21.88;32.02
48035;BME280;33812;46.480;6.834;2023-02-16T08:03:44;94769.53;;;21.89;31.46
48035;BME280;33812;46.480;6.834;2023-02-16T08:07:45;94764.78;;;21.90;31.20
48035;BME280;33812;46.480;6.834;2023-02-16T08:11:49;94763.59;;;21.91;31.96
48035;BME280;33812;46.480;6.834;2023-02-16T08:15:51;94770.69;;;21.92;31.82
48035;BME280;33812;46.480;6.834;2023-02-16T08:19:52;94773.47;;;21.92;31.77
48035;BME280;33812;46.480;6.834;2023-02-16T08:23:56;94773.03;;;21.93;31.68
48035;BME280;33812;46.480;6.834;2023-02-16T08:28:00;94775.81;;;21.93;31.62
48035;BME280;33812;46.480;6.834;2023-02-16T08:32:02;94778.56;;;21.93;31.71
48035;BME280;33812;46.480;6.834;2023-02-16T08:36:11;94776.19;;;21.95;31.79
48035;BME280;33812;46.480;6.834;2023-02-16T08:40:16;94784.47;;;21.95;31.88
48035;BME280;33812;46.480;6.834;2023-02-16T08:44:25;94790.00;;;21.95;32.09
48035;BME280;33812;46.480;6.834;2023-02-16T08:48:28;94792.38;;;21.97;31.93
48035;BME280;33812;46.480;6.834;2023-02-16T08:52:34;94794.34;;;21.96;31.68
48035;BME280;33812;46.480;6.834;2023-02-16T08:56:36;94802.66;;;21.96;31.53
48035;BME280;33812;46.480;6.834;2023-02-16T09:00:40;94800.66;;;21.97;32.78
48035;BME280;33812;46.480;6.834;2023-02-16T09:04:43;94801.47;;;21.97;32.99
48035;BME280;33812;46.480;6.834;2023-02-16T09:08:49;94808.56;;;21.98;33.40
48035;BME280;33812;46.480;6.834;2023-02-16T09:12:51;94804.56;;;22.00;33.07
48035;BME280;33812;46.480;6.834;2023-02-16T09:16:55;94800.19;;;22.02;33.08
48035;BME280;33812;46.480;6.834;2023-02-16T09:21:01;94813.63;;;22.04;32.61
48035;BME280;33812;46.480;6.834;2023-02-16T09:25:04;94810.84;;;22.04;32.17
48035;BME280;33812;46.480;6.834;2023-02-16T09:29:07;94815.97;;;22.05;32.13
48035;BME280;33812;46.480;6.834;2023-02-16T09:33:10;94812.06;;;22.03;32.11
48035;BME280;33812;46.480;6.834;2023-02-16T09:37:12;94817.88;;;22.08;32.31
48035;BME280;33812;46.480;6.834;2023-02-16T09:41:22;94818.69;;;22.09;32.22
48035;BME280;33812;46.480;6.834;2023-02-16T09:45:26;94817.13;;;22.08;32.17
48035;BME280;33812;46.480;6.834;2023-02-16T09:49:34;94817.50;;;22.10;31.86
48035;BME280;33812;46.480;6.834;2023-02-16T09:53:39;94818.25;;;22.10;32.17
48035;BME280;33812;46.480;6.834;2023-02-16T09:57:50;94823.38;;;22.12;32.21
48035;BME280;33812;46.480;6.834;2023-02-16T10:02:01;94819.88;;;22.08;32.21
48035;BME280;33812;46.480;6.834;2023-02-16T10:06:26;94819.03;;;22.11;32.19
48035;BME280;33812;46.480;6.834;2023-02-16T10:10:37;94823.75;;;22.14;32.42
48035;BME280;33812;46.480;6.834;2023-02-16T10:14:43;94825.31;;;22.15;32.50
48035;BME280;33812;46.480;6.834;2023-02-16T10:18:48;94820.91;;;22.18;32.65
48035;BME280;33812;46.480;6.834;2023-02-16T10:22:56;94825.53;;;22.01;32.78
48035;BME280;33812;46.480;6.834;2023-02-16T10:27:04;94832.84;;;22.15;32.45
48035;BME280;33812;46.480;6.834;2023-02-16T10:31:12;94832.38;;;22.20;32.31
48035;BME280;33812;46.480;6.834;2023-02-16T10:35:15;94824.41;;;22.22;32.26
48035;BME280;33812;46.480;6.834;2023-02-16T10:39:25;94811.72;;;22.25;32.70
48035;BME280;33812;46.480;6.834;2023-02-16T10:43:38;94828.69;;;22.27;32.57
48035;BME280;33812;46.480;6.834;2023-02-16T10:47:44;94829.91;;;22.26;32.70
48035;BME280;33812;46.480;6.834;2023-02-16T10:51:48;94827.13;;;22.26;33.12
48035;BME280;33812;46.480;6.834;2023-02-16T10:55:52;94821.59;;;22.26;32.98
48035;BME280;33812;46.480;6.834;2023-02-16T10:59:57;94814.84;;;22.27;32.96
48035;BME280;33812;46.480;6.834;2023-02-16T11:03:59;94810.88;;;22.28;33.46
48035;BME280;33812;46.480;6.834;2023-02-16T11:08:01;94813.22;;;22.29;33.23
48035;BME280;33812;46.480;6.834;2023-02-16T11:12:19;94816.34;;;22.31;33.54
48035;BME280;33812;46.480;6.834;2023-02-16T11:16:23;94811.22;;;22.30;33.54
48035;BME280;33812;46.480;6.834;2023-02-16T11:20:27;94810.03;;;22.31;33.31
48035;BME280;33812;46.480;6.834;2023-02-16T11:24:31;94804.50;;;22.31;33.21
48035;BME280;33812;46.480;6.834;2023-02-16T11:28:37;94806.06;;;22.32;33.16
48035;BME280;33812;46.480;6.834;2023-02-16T11:32:39;94797.34;;;22.33;33.11
48035;BME280;33812;46.480;6.834;2023-02-16T11:36:43;94793.38;;;22.34;33.33
48035;BME280;33812;46.480;6.834;2023-02-16T11:40:50;94799.66;;;22.35;33.27
48035;BME280;33812;46.480;6.834;2023-02-16T11:44:56;94791.72;;;22.37;33.63
48035;BME280;33812;46.480;6.834;2023-02-16T11:49:19;94789.69;;;22.41;33.76
48035;BME280;33812;46.480;6.834;2023-02-16T11:53:23;94791.69;;;22.41;34.05
48035;BME280;33812;46.480;6.834;2023-02-16T11:57:27;94788.47;;;22.42;34.12
48035;BME280;33812;46.480;6.834;2023-02-16T12:01:33;94776.81;;;22.31;33.22
48035;BME280;33812;46.480;6.834;2023-02-16T12:06:10;94775.97;;;22.34;33.35
48035;BME280;33812;46.480;6.834;2023-02-16T12:10:23;94767.28;;;22.32;32.77
48035;BME280;33812;46.480;6.834;2023-02-16T12:14:39;94776.81;;;22.31;32.22
48035;BME280;33812;46.480;6.834;2023-02-16T12:18:51;94761.69;;;22.36;31.56
48035;BME280;33812;46.480;6.834;2023-02-16T12:23:00;94765.19;;;22.40;31.88
48035;BME280;33812;46.480;6.834;2023-02-16T12:27:07;94766.06;;;22.33;31.54
48035;BME280;33812;46.480;6.834;2023-02-16T12:31:25;94760.91;;;22.35;31.79
48035;BME280;33812;46.480;6.834;2023-02-16T12:35:52;94757.75;;;22.33;31.65
48035;BME280;33812;46.480;6.834;2023-02-16T12:40:04;94755.78;;;22.33;31.84
48035;BME280;33812;46.480;6.834;2023-02-16T12:44:14;94746.69;;;22.33;31.87
48035;BME280;33812;46.480;6.834;2023-02-16T12:48:26;94743.16;;;22.32;31.93
48035;BME280;33812;46.480;6.834;2023-02-16T12:52:38;94736.41;;;22.33;32.07
48035;BME280;33812;46.480;6.834;2023-02-16T12:56:43;94735.63;;;22.33;32.20
48035;BME280;33812;46.480;6.834;2023-02-16T13:00:48;94731.28;;;22.32;32.29
48035;BME280;33812;46.480;6.834;2023-02-16T13:04:57;94724.53;;;22.33;32.08
48035;BME280;33812;46.480;6.834;2023-02-16T13:09:21;94721.75;;;22.33;32.11
48035;BME280;33812;46.480;6.834;2023-02-16T13:13:26;94717.81;;;22.34;32.19
48035;BME280;33812;46.480;6.834;2023-02-16T13:17:32;94718.59;;;22.34;32.30
48035;BME280;33812;46.480;6.834;2023-02-16T13:30:48;94704.31;;;22.36;32.26
48035;BME280;33812;46.480;6.834;2023-02-16T13:35:11;94689.69;;;22.36;32.28
48035;BME280;33812;46.480;6.834;2023-02-16T13:39:58;94680.16;;;22.37;32.29
48035;BME280;33812;46.480;6.834;2023-02-16T13:44:06;94671.84;;;22.37;32.40
48035;BME280;33812;46.480;6.834;2023-02-16T13:48:14;94676.97;;;22.38;32.35
48035;BME280;33812;46.480;6.834;2023-02-16T13:52:28;94670.66;;;22.38;32.32
48035;BME280;33812;46.480;6.834;2023-02-16T13:56:33;94678.53;;;22.39;32.37
48035;BME280;33812;46.480;6.834;2023-02-16T14:00:39;94673.78;;;22.40;32.34
48035;BME280;33812;46.480;6.834;2023-02-16T14:05:01;94669.03;;;22.40;32.37
48035;BME280;33812;46.480;6.834;2023-02-16T14:09:32;94662.72;;;22.40;32.33
48035;BME280;33812;46.480;6.834;2023-02-16T14:13:49;94664.28;;;22.41;32.50
48035;BME280;33812;46.480;6.834;2023-02-16T14:17:52;94665.81;;;22.42;32.24
48035;BME280;33812;46.480;6.834;2023-02-16T14:21:54;94670.16;;;22.43;32.24
48035;BME280;33812;46.480;6.834;2023-02-16T14:26:00;94665.41;;;22.43;32.09
48035;BME280;33812;46.480;6.834;2023-02-16T14:30:04;94668.16;;;22.43;32.32
48035;BME280;33812;46.480;6.834;2023-02-16T14:34:18;94670.53;;;22.45;32.18
48035;BME280;33812;46.480;6.834;2023-02-16T14:38:25;94669.75;;;22.44;32.33
48035;BME280;33812;46.480;6.834;2023-02-16T14:42:31;94667.75;;;22.45;32.39
48035;BME280;33812;46.480;6.834;2023-02-16T14:46:43;94668.94;;;22.44;32.33
48035;BME280;33812;46.480;6.834;2023-02-16T14:51:06;94672.88;;;22.46;32.38
48035;BME280;33812;46.480;6.834;2023-02-16T14:55:36;94667.34;;;22.46;32.41
48035;BME280;33812;46.480;6.834;2023-02-16T14:59:47;94661.00;;;22.46;32.47
48035;BME280;33812;46.480;6.834;2023-02-16T15:03:52;94659.34;;;22.49;32.31
48035;BME280;33812;46.480;6.834;2023-02-16T15:08:01;94659.34;;;22.49;32.52
48035;BME280;33812;46.480;6.834;2023-02-16T15:12:09;94661.38;;;22.48;32.08
48035;BME280;33812;46.480;6.834;2023-02-16T15:16:24;94668.88;;;22.48;31.88
48035;BME280;33812;46.480;6.834;2023-02-16T15:20:29;94660.56;;;22.48;31.97
48035;BME280;33812;46.480;6.834;2023-02-16T15:24:33;94651.06;;;22.49;32.04
48035;BME280;33812;46.480;6.834;2023-02-16T15:28:36;94652.28;;;22.48;31.99
48035;BME280;33812;46.480;6.834;2023-02-16T15:32:39;94650.28;;;22.48;31.97
48035;BME280;33812;46.480;6.834;2023-02-16T15:36:43;94646.72;;;22.48;32.01
48035;BME280;33812;46.480;6.834;2023-02-16T15:40:50;94647.53;;;22.48;31.77
48035;BME280;33812;46.480;6.834;2023-02-16T15:44:52;94641.19;;;22.48;31.87
48035;BME280;33812;46.480;6.834;2023-02-16T15:48:53;94658.59;;;22.48;31.76
48035;BME280;33812;46.480;6.834;2023-02-16T15:52:55;94653.81;;;22.49;31.77
48035;BME280;33812;46.480;6.834;2023-02-16T15:56:59;94647.09;;;22.50;31.52
48035;BME280;33812;46.480;6.834;2023-02-16T16:01:02;94653.41;;;22.50;31.54
48035;BME280;33812;46.480;6.834;2023-02-16T16:05:06;94654.63;;;22.49;31.62
48035;BME280;33812;46.480;6.834;2023-02-16T16:09:19;94659.72;;;22.51;31.55
48035;BME280;33812;46.480;6.834;2023-02-16T16:13:25;94663.28;;;22.51;31.39
48035;BME280;33812;46.480;6.834;2023-02-16T16:17:30;94651.78;;;22.53;31.60
48035;BME280;33812;46.480;6.834;2023-02-16T16:21:33;94659.28;;;22.52;31.88
48035;BME280;33812;46.480;6.834;2023-02-16T16:25:40;94664.06;;;22.52;32.30
48035;BME280;33812;46.480;6.834;2023-02-16T16:29:46;94652.91;;;22.55;32.97
48035;BME280;33812;46.480;6.834;2023-02-16T16:33:52;94650.91;;;22.56;32.77
48035;BME280;33812;46.480;6.834;2023-02-16T16:37:54;94639.47;;;22.54;32.85
48035;BME280;33812;46.480;6.834;2023-02-16T16:42:15;94640.25;;;22.54;33.16
48035;BME280;33812;46.480;6.834;2023-02-16T16:46:22;94648.56;;;22.54;33.00
48035;BME280;33812;46.480;6.834;2023-02-16T16:50:29;94650.16;;;22.55;33.24
48035;BME280;33812;46.480;6.834;2023-02-16T16:54:33;94640.63;;;22.56;33.59
48035;BME280;33812;46.480;6.834;2023-02-16T16:58:35;94645.31;;;22.59;33.85
48035;BME280;33812;46.480;6.834;2023-02-16T17:02:38;94658.41;;;22.59;33.47
48035;BME280;33812;46.480;6.834;2023-02-16T17:06:40;94659.22;;;22.56;33.14
48035;BME280;33812;46.480;6.834;2023-02-16T17:10:42;94659.66;;;22.54;32.67
48035;BME280;33812;46.480;6.834;2023-02-16T17:14:44;94665.19;;;22.54;32.43
48035;BME280;33812;46.480;6.834;2023-02-16T17:18:47;94669.94;;;22.54;32.34
48035;BME280;33812;46.480;6.834;2023-02-16T17:22:49;94674.28;;;22.55;32.02
48035;BME280;33812;46.480;6.834;2023-02-16T17:26:50;94672.03;;;22.50;31.78
48035;BME280;33812;46.480;6.834;2023-02-16T17:30:52;94675.09;;;22.55;31.70
48035;BME280;33812;46.480;6.834;2023-02-16T17:34:55;94677.00;;;22.58;31.96
48035;BME280;33812;46.480;6.834;2023-02-16T17:38:58;94672.66;;;22.57;32.23
48035;BME280;33812;46.480;6.834;2023-02-16T17:43:00;94687.28;;;22.58;32.00
48035;BME280;33812;46.480;6.834;2023-02-16T17:47:02;94685.66;;;22.61;32.28
48035;BME280;33812;46.480;6.834;2023-02-16T17:51:05;94685.66;;;22.61;32.60
48035;BME280;33812;46.480;6.834;2023-02-16T17:55:07;94686.44;;;22.61;32.51
48035;BME280;33812;46.480;6.834;2023-02-16T17:59:10;94688.44;;;22.61;32.39
48035;BME280;33812;46.480;6.834;2023-02-16T18:03:14;94693.97;;;22.61;32.39
48035;BME280;33812;46.480;6.834;2023-02-16T18:07:18;94700.72;;;22.59;32.40
48035;BME280;33812;46.480;6.834;2023-02-16T18:11:27;94690.41;;;22.60;32.36
48035;BME280;33812;46.480;6.834;2023-02-16T18:15:44;94692.41;;;22.59;32.44
48035;BME280;33812;46.480;6.834;2023-02-16T18:19:59;94695.16;;;22.59;32.47
48035;BME280;33812;46.480;6.834;2023-02-16T18:24:05;94701.09;;;22.62;32.59
48035;BME280;33812;46.480;6.834;2023-02-16T18:28:14;94712.97;;;22.62;32.88
48035;BME280;33812;46.480;6.834;2023-02-16T18:32:17;94713.75;;;22.63;32.50
48035;BME280;33812;46.480;6.834;2023-02-16T18:36:27;94720.06;;;22.63;32.85
48035;BME280;33812;46.480;6.834;2023-02-16T18:40:30;94724.00;;;22.66;33.64
48035;BME280;33812;46.480;6.834;2023-02-16T18:44:32;94729.53;;;22.66;34.22
48035;BME280;33812;46.480;6.834;2023-02-16T18:48:34;94736.63;;;22.67;33.77
48035;BME280;33812;46.480;6.834;2023-02-16T18:52:36;94733.06;;;22.66;33.64
48035;BME280;33812;46.480;6.834;2023-02-16T18:56:39;94737.06;;;22.65;33.85
48035;BME280;33812;46.480;6.834;2023-02-16T19:00:41;94744.94;;;22.67;33.47
48035;BME280;33812;46.480;6.834;2023-02-16T19:04:43;94738.59;;;22.66;33.82
48035;BME280;33812;46.480;6.834;2023-02-16T19:08:46;94735.06;;;22.66;34.49
48035;BME280;33812;46.480;6.834;2023-02-16T19:12:49;94745.72;;;22.67;35.35
48035;BME280;33812;46.480;6.834;2023-02-16T19:16:51;94746.09;;;22.69;34.52
48035;BME280;33812;46.480;6.834;2023-02-16T19:20:53;94746.09;;;22.69;34.20
48035;BME280;33812;46.480;6.834;2023-02-16T19:24:55;94754.91;;;22.64;31.67
48035;BME280;33812;46.480;6.834;2023-02-16T19:28:58;94756.50;;;20.99;24.83
48035;BME280;33812;46.480;6.834;2023-02-16T19:33:00;94772.00;;;19.98;24.14
48035;BME280;33812;46.480;6.834;2023-02-16T19:37:02;94784.03;;;20.26;24.92
48035;BME280;33812;46.480;6.834;2023-02-16T19:41:07;94774.44;;;21.50;24.99
48035;BME280;33812;46.480;6.834;2023-02-16T19:45:11;94783.75;;;21.91;25.43
48035;BME280;33812;46.480;6.834;2023-02-16T19:49:13;94779.88;;;22.13;26.38
48035;BME280;33812;46.480;6.834;2023-02-16T19:53:15;94775.72;;;22.25;27.63
48035;BME280;33812;46.480;6.834;2023-02-16T19:57:16;94773.69;;;22.29;28.29
48035;BME280;33812;46.480;6.834;2023-02-16T20:01:22;94786.25;;;22.33;28.97
48035;BME280;33812;46.480;6.834;2023-02-16T20:05:24;94796.41;;;22.40;29.39
48035;BME280;33812;46.480;6.834;2023-02-16T20:09:26;94799.19;;;22.40;30.22
48035;BME280;33812;46.480;6.834;2023-02-16T20:13:28;94806.66;;;22.43;30.87
48035;BME280;33812;46.480;6.834;2023-02-16T20:17:31;94804.69;;;22.44;30.76
48035;BME280;33812;46.480;6.834;2023-02-16T20:21:33;94811.38;;;22.46;31.05
48035;BME280;33812;46.480;6.834;2023-02-16T20:25:37;94802.22;;;22.50;31.34
48035;BME280;33812;46.480;6.834;2023-02-16T20:29:40;94814.47;;;22.49;31.59
48035;BME280;33812;46.480;6.834;2023-02-16T20:33:49;94804.97;;;22.50;32.05
48035;BME280;33812;46.480;6.834;2023-02-16T20:37:51;94804.19;;;22.49;32.13
48035;BME280;33812;46.480;6.834;2023-02-16T20:41:53;94804.13;;;22.53;32.36
48035;BME280;33812;46.480;6.834;2023-02-16T20:46:00;94806.13;;;22.52;32.43
48035;BME280;33812;46.480;6.834;2023-02-16T20:50:03;94806.91;;;22.53;32.71
48035;BME280;33812;46.480;6.834;2023-02-16T20:54:12;94805.69;;;22.54;32.70
48035;BME280;33812;46.480;6.834;2023-02-16T20:58:14;94805.69;;;22.54;33.29
48035;BME280;33812;46.480;6.834;2023-02-16T21:02:16;94798.16;;;22.54;32.84
48035;BME280;33812;46.480;6.834;2023-02-16T21:06:20;94795.81;;;22.53;32.56
48035;BME280;33812;46.480;6.834;2023-02-16T21:10:22;94803.00;;;22.50;31.82
48035;BME280;33812;46.480;6.834;2023-02-16T21:14:24;94798.59;;;22.53;31.93
48035;BME280;33812;46.480;6.834;2023-02-16T21:18:26;94797.84;;;22.49;31.71
48035;BME280;33812;46.480;6.834;2023-02-16T21:22:29;94802.56;;;22.52;31.60
48035;BME280;33812;46.480;6.834;2023-02-16T21:26:31;94799.00;;;22.51;31.57
48035;BME280;33812;46.480;6.834;2023-02-16T21:30:32;94800.56;;;22.52;31.86
48035;BME280;33812;46.480;6.834;2023-02-16T21:34:34;94810.53;;;22.50;31.91
48035;BME280;33812;46.480;6.834;2023-02-16T21:38:38;94800.63;;;22.49;31.86
48035;BME280;33812;46.480;6.834;2023-02-16T21:42:40;94791.91;;;22.50;31.99
48035;BME280;33812;46.480;6.834;2023-02-16T21:46:44;94799.44;;;22.50;32.01
48035;BME280;33812;46.480;6.834;2023-02-16T21:50:46;94797.84;;;22.49;31.78
48035;BME280;33812;46.480;6.834;2023-02-16T21:54:49;94793.91;;;22.50;31.72
48035;BME280;33812;46.480;6.834;2023-02-16T21:59:16;94797.09;;;22.48;31.92
48035;BME280;33812;46.480;6.834;2023-02-16T22:03:20;94799.44;;;22.50;31.93
48035;BME280;33812;46.480;6.834;2023-02-16T22:07:22;94799.44;;;22.50;32.09
48035;BME280;33812;46.480;6.834;2023-02-16T22:11:26;94808.94;;;22.49;32.22
48035;BME280;33812;46.480;6.834;2023-02-16T22:15:34;94810.16;;;22.48;32.08
48035;BME280;33812;46.480;6.834;2023-02-16T22:19:36;94812.13;;;22.47;32.02
48035;BME280;33812;46.480;6.834;2023-02-16T22:23:39;94820.44;;;22.47;31.99
48035;BME280;33812;46.480;6.834;2023-02-16T22:27:42;94825.56;;;22.49;32.16
48035;BME280;33812;46.480;6.834;2023-02-16T22:31:45;94828.34;;;22.49;32.06
48035;BME280;33812;46.480;6.834;2023-02-16T22:35:47;94825.66;;;22.45;31.92
48035;BME280;33812;46.480;6.834;2023-02-16T22:39:49;94827.56;;;22.48;32.04
48035;BME280;33812;46.480;6.834;2023-02-16T22:43:57;94827.19;;;22.46;32.21
48035;BME280;33812;46.480;6.834;2023-02-16T22:47:59;94832.75;;;22.46;31.95
48035;BME280;33812;46.480;6.834;2023-02-16T22:52:01;94833.16;;;22.44;31.90
48035;BME280;33812;46.480;6.834;2023-02-16T22:56:06;94836.72;;;22.45;31.96
48035;BME280;33812;46.480;6.834;2023-02-16T23:00:14;94835.94;;;22.44;32.13
48035;BME280;33812;46.480;6.834;2023-02-16T23:04:23;94835.94;;;22.44;31.78
48035;BME280;33812;46.480;6.834;2023-02-16T23:08:25;94833.53;;;22.46;31.75
48035;BME280;33812;46.480;6.834;2023-02-16T23:12:32;94828.41;;;22.45;31.54
48035;BME280;33812;46.480;6.834;2023-02-16T23:16:35;94828.47;;;22.41;31.62
48035;BME280;33812;46.480;6.834;2023-02-16T23:20:36;94833.59;;;22.43;31.53
48035;BME280;33812;46.480;6.834;2023-02-16T23:24:39;94833.59;;;22.43;31.88
48035;BME280;33812;46.480;6.834;2023-02-16T23:28:41;94822.50;;;22.43;31.54
48035;BME280;33812;46.480;6.834;2023-02-16T23:32:45;94827.25;;;22.42;31.64
48035;BME280;33812;46.480;6.834;2023-02-16T23:36:53;94831.25;;;22.41;31.57
48035;BME280;33812;46.480;6.834;2023-02-16T23:41:08;94832.00;;;22.42;31.52
48035;BME280;33812;46.480;6.834;2023-02-16T23:45:24;94831.25;;;22.41;31.62
48035;BME280;33812;46.480;6.834;2023-02-16T23:49:32;94833.22;;;22.41;31.46
48035;BME280;33812;46.480;6.834;2023-02-16T23:53:41;94823.69;;;22.42;31.50
48035;BME280;33812;46.480;6.834;2023-02-16T23:57:43;94818.59;;;22.40;31.52
